Time;durP1;ratioP1;P1;durP2;ratioP2;P2;SDS_P1;SDS_P2;PMS_P1;PMS_P2;Temp;Humidity;BMP_temperature;BMP_pressure;BME280_temperature;BME280_humidity;BME280_pressure;Samples;Min_cycle;Max_cycle;Signal;HPM_P1;HPM_P2
2021/12/19 00:00:46;;;;;;;29.30;17.13;;;1.30;94.20;;;;;;5054967;28;20233;-88
2021/12/19 00:03:34;;;;;;;29.37;16.07;;;1.30;94.30;;;;;;5063996;28;20641;-87
2021/12/19 00:08:50;;;;;;;29.47;16.30;;;1.20;94.30;;;;;;5048151;28;20215;-88
2021/12/19 00:11:18;;;;;;;29.87;16.60;;;1.00;94.40;;;;;;5052750;28;20664;-88
2021/12/19 00:13:45;;;;;;;32.43;16.27;;;0.90;94.50;;;;;;5051812;28;20208;-87
2021/12/19 00:16:12;;;;;;;29.37;16.37;;;0.80;95.10;;;;;;5050583;28;20595;-87
2021/12/19 00:18:42;;;;;;;32.63;16.67;;;0.90;95.50;;;;;;5050348;28;20204;-87
2021/12/19 00:21:13;;;;;;;28.30;15.93;;;0.90;95.40;;;;;;5049542;28;20297;-88
2021/12/19 00:23:41;;;;;;;30.77;16.90;;;0.80;95.50;;;;;;5050830;28;20198;-87
2021/12/19 00:26:08;;;;;;;28.70;15.77;;;0.90;95.70;;;;;;5035893;28;20246;-87
2021/12/19 00:28:36;;;;;;;29.10;15.53;;;0.70;95.70;;;;;;5041536;28;20212;-87
2021/12/19 00:31:03;;;;;;;27.53;14.77;;;0.70;96.00;;;;;;5036084;28;20230;-87
2021/12/19 00:33:30;;;;;;;28.47;15.50;;;0.80;95.80;;;;;;5018796;28;20214;-88
2021/12/19 00:35:57;;;;;;;29.70;15.20;;;0.80;96.10;;;;;;5040738;28;20232;-88
2021/12/19 00:38:26;;;;;;;26.00;14.30;;;0.90;95.50;;;;;;5038684;28;20217;-88
2021/12/19 00:40:56;;;;;;;28.63;15.20;;;0.80;95.70;;;;;;5036425;28;20562;-87
2021/12/19 00:43:32;;;;;;;31.03;14.90;;;0.80;95.60;;;;;;5037449;28;20633;-88
2021/12/19 00:46:05;;;;;;;28.47;14.50;;;0.90;95.90;;;;;;5043019;28;20237;-88
2021/12/19 00:48:33;;;;;;;31.63;16.60;;;0.90;95.90;;;;;;5037549;28;20242;-88
2021/12/19 00:51:00;;;;;;;28.17;14.33;;;0.80;95.80;;;;;;5046473;28;20235;-88
2021/12/19 00:53:29;;;;;;;28.33;14.70;;;0.90;95.90;;;;;;5049892;28;20208;-88
2021/12/19 00:55:56;;;;;;;29.90;15.03;;;0.90;95.50;;;;;;5036182;28;20232;-88
2021/12/19 00:58:23;;;;;;;32.70;15.27;;;0.90;95.60;;;;;;5036920;28;20254;-88
2021/12/19 01:00:50;;;;;;;30.27;15.00;;;1.00;95.80;;;;;;5024750;28;20240;-88
2021/12/19 01:03:18;;;;;;;30.73;15.07;;;1.00;95.80;;;;;;5015507;28;20537;-89
2021/12/19 01:05:45;;;;;;;33.10;15.43;;;1.00;95.50;;;;;;5015341;28;20234;-88
2021/12/19 01:08:13;;;;;;;34.07;16.20;;;0.90;95.60;;;;;;5016112;28;20297;-88
2021/12/19 01:10:44;;;;;;;28.43;14.90;;;1.00;96.10;;;;;;5015260;28;20600;-88
2021/12/19 01:13:14;;;;;;;32.10;15.63;;;1.10;96.20;;;;;;5014203;28;20219;-87
2021/12/19 01:15:41;;;;;;;31.13;15.23;;;1.10;96.00;;;;;;5014262;28;20563;-90
2021/12/19 01:18:08;;;;;;;29.97;14.60;;;1.20;95.90;;;;;;5015900;28;20555;-89
2021/12/19 01:20:37;;;;;;;29.33;14.97;;;1.30;95.60;;;;;;5015526;28;20319;-87
2021/12/19 01:23:06;;;;;;;30.23;14.57;;;1.20;95.00;;;;;;5015748;28;20205;-88
2021/12/19 01:25:33;;;;;;;27.27;14.67;;;1.10;95.50;;;;;;5014423;28;20238;-87
2021/12/19 01:28:02;;;;;;;29.70;14.93;;;1.10;95.60;;;;;;5013826;28;20202;-88
2021/12/19 01:30:30;;;;;;;30.97;14.97;;;1.10;95.50;;;;;;5015108;28;20690;-87
2021/12/19 01:32:57;;;;;;;27.40;14.87;;;1.20;95.40;;;;;;5016306;28;20213;-87
2021/12/19 01:35:24;;;;;;;30.27;15.37;;;1.20;95.30;;;;;;5031632;28;20680;-88
2021/12/19 01:37:52;;;;;;;31.27;15.20;;;1.20;95.20;;;;;;5054155;28;20289;-88
2021/12/19 01:40:21;;;;;;;29.00;15.00;;;1.20;95.20;;;;;;5027148;28;20227;-88
2021/12/19 01:42:51;;;;;;;31.70;14.87;;;1.10;94.90;;;;;;5015086;28;20229;-89
2021/12/19 01:45:26;;;;;;;28.70;14.60;;;1.00;95.50;;;;;;5010257;28;20220;-88
2021/12/19 01:47:53;;;;;;;29.13;14.83;;;1.00;96.00;;;;;;5011277;28;20669;-89
2021/12/19 01:50:21;;;;;;;29.90;14.03;;;1.10;96.20;;;;;;5014784;28;20234;-89
2021/12/19 01:52:49;;;;;;;25.73;14.13;;;1.20;95.80;;;;;;5019699;28;20210;-88
2021/12/19 01:55:17;;;;;;;30.70;15.63;;;1.30;95.50;;;;;;5014147;28;20231;-88
2021/12/19 01:57:44;;;;;;;30.17;14.80;;;1.20;95.60;;;;;;5014022;28;20221;-88
2021/12/19 02:00:22;;;;;;;27.37;14.27;;;1.00;95.70;;;;;;5013684;28;20764;-87
2021/12/19 02:02:51;;;;;;;32.13;14.80;;;1.00;95.80;;;;;;5015033;28;20220;-88
2021/12/19 02:05:19;;;;;;;30.37;14.60;;;1.00;95.80;;;;;;5018833;28;20229;-88
2021/12/19 02:07:49;;;;;;;28.83;14.37;;;1.10;95.70;;;;;;5034045;28;20202;-88
2021/12/19 02:10:19;;;;;;;27.23;14.23;;;1.00;95.90;;;;;;5033734;28;20253;-88
2021/12/19 02:12:48;;;;;;;27.63;13.73;;;1.10;95.90;;;;;;5032691;28;20209;-88
2021/12/19 02:15:18;;;;;;;34.23;14.97;;;1.20;95.50;;;;;;5032958;28;20225;-88
2021/12/19 02:17:45;;;;;;;29.13;15.20;;;1.20;95.20;;;;;;5033106;28;20217;-88
2021/12/19 02:20:15;;;;;;;28.63;14.93;;;1.00;95.30;;;;;;5033251;28;20686;-89
2021/12/19 02:22:43;;;;;;;27.93;14.53;;;1.00;95.60;;;;;;5035502;28;20213;-88
2021/12/19 02:25:11;;;;;;;26.40;14.00;;;1.00;95.60;;;;;;5039174;28;20588;-88
2021/12/19 02:27:38;;;;;;;26.63;14.77;;;1.00;95.40;;;;;;5038513;28;20209;-88
2021/12/19 02:30:07;;;;;;;26.13;13.77;;;1.10;95.10;;;;;;5028132;28;20241;-88
2021/12/19 02:32:36;;;;;;;25.17;13.43;;;1.10;95.10;;;;;;5013146;28;20214;-89
2021/12/19 02:35:07;;;;;;;27.47;14.07;;;1.10;95.00;;;;;;5011715;28;20468;-88
2021/12/19 02:40:38;;;;;;;26.43;13.73;;;1.00;95.10;;;;;;5000670;28;20250;-88
2021/12/19 02:48:35;;;;;;;31.50;14.63;;;0.90;95.10;;;;;;5012531;28;20209;-88
2021/12/19 02:51:02;;;;;;;33.03;15.77;;;0.70;95.20;;;;;;5012802;28;20230;-88
2021/12/19 02:53:36;;;;;;;30.83;15.33;;;0.70;96.00;;;;;;5011417;28;20201;-88
2021/12/19 02:56:06;;;;;;;28.50;14.83;;;0.80;96.00;;;;;;5012427;28;20232;-88
2021/12/19 02:58:35;;;;;;;30.67;15.70;;;0.80;95.90;;;;;;5013220;28;20226;-88
2021/12/19 03:01:06;;;;;;;27.33;15.00;;;0.80;95.50;;;;;;5013579;28;20238;-87
2021/12/19 03:03:33;;;;;;;28.60;14.63;;;0.80;96.00;;;;;;5012552;28;20215;-87
2021/12/19 03:06:01;;;;;;;31.27;15.50;;;0.90;95.90;;;;;;5004787;28;20725;-87
2021/12/19 03:08:28;;;;;;;29.70;14.83;;;0.90;95.50;;;;;;5011222;28;20199;-88
2021/12/19 03:17:56;;;;;;;30.10;15.80;;;0.80;95.50;;;;;;5004807;28;20210;-87
2021/12/19 03:19:10;;;;;;;30.63;15.63;;;0.70;95.80;;;;;;5004040;28;20228;-87
2021/12/19 03:21:37;;;;;;;31.00;15.53;;;0.60;95.90;;;;;;5012337;28;20230;-87
2021/12/19 03:24:05;;;;;;;32.43;16.00;;;0.60;96.00;;;;;;4998379;28;20209;-88
2021/12/19 03:26:33;;;;;;;33.30;16.40;;;0.70;96.00;;;;;;5012147;28;20227;-87
2021/12/19 03:29:00;;;;;;;32.07;15.87;;;0.70;95.90;;;;;;5013336;28;20205;-88
2021/12/19 03:31:27;;;;;;;34.00;16.53;;;0.90;95.70;;;;;;5013081;28;20244;-87
2021/12/19 03:33:55;;;;;;;28.63;14.67;;;1.00;95.40;;;;;;5012272;28;20202;-87
2021/12/19 03:36:22;;;;;;;31.07;15.67;;;1.00;94.90;;;;;;5012157;28;20593;-88
2021/12/19 03:38:52;;;;;;;30.73;16.10;;;1.00;94.90;;;;;;5019738;28;20258;-88
2021/12/19 03:41:22;;;;;;;32.30;16.07;;;1.00;94.50;;;;;;5012277;28;20237;-88
2021/12/19 03:43:51;;;;;;;31.27;15.70;;;0.90;95.00;;;;;;5014140;28;20760;-88
2021/12/19 03:46:19;;;;;;;34.87;16.80;;;0.80;95.40;;;;;;5021120;28;20250;-87
2021/12/19 03:48:47;;;;;;;32.27;16.10;;;0.80;95.60;;;;;;5016225;28;20203;-88
2021/12/19 03:51:14;;;;;;;34.57;16.30;;;0.80;95.80;;;;;;5012180;28;20246;-87
2021/12/19 03:53:43;;;;;;;31.63;15.10;;;0.70;95.90;;;;;;5013443;28;20271;-88
2021/12/19 03:56:10;;;;;;;31.63;15.03;;;0.80;96.00;;;;;;5014278;28;20255;-87
2021/12/19 03:58:37;;;;;;;30.53;15.60;;;1.00;95.60;;;;;;5013951;28;20226;-87
2021/12/19 04:01:08;;;;;;;33.00;16.10;;;1.00;95.30;;;;;;5013968;28;20321;-87
2021/12/19 04:03:36;;;;;;;33.87;15.87;;;1.00;94.60;;;;;;5017198;28;20234;-87
2021/12/19 04:06:04;;;;;;;31.53;15.03;;;1.10;94.40;;;;;;5024382;28;20234;-87
2021/12/19 04:08:31;;;;;;;35.40;16.30;;;0.90;94.80;;;;;;5026828;28;20307;-88
2021/12/19 04:10:58;;;;;;;33.87;16.87;;;1.00;94.50;;;;;;5015793;28;20704;-88
2021/12/19 04:13:25;;;;;;;30.13;15.30;;;0.90;94.30;;;;;;5027877;28;20221;-87
2021/12/19 04:15:53;;;;;;;32.53;16.20;;;0.90;94.80;;;;;;5030784;28;20233;-87
2021/12/19 04:18:21;;;;;;;35.53;16.33;;;0.90;94.90;;;;;;5016484;28;20222;-88
2021/12/19 04:20:49;;;;;;;36.80;16.93;;;0.80;94.80;;;;;;5016046;28;20233;-87
2021/12/19 04:23:16;;;;;;;40.80;16.83;;;0.70;95.00;;;;;;5016382;28;20268;-87
2021/12/19 04:25:43;;;;;;;38.93;17.33;;;0.70;95.30;;;;;;5015138;28;20230;-88
2021/12/19 04:28:11;;;;;;;34.23;16.70;;;0.70;95.30;;;;;;5016181;28;20206;-88
2021/12/19 04:30:38;;;;;;;33.37;15.87;;;0.70;95.10;;;;;;5015914;28;20230;-87
2021/12/19 04:33:09;;;;;;;32.27;16.07;;;0.70;95.50;;;;;;5016446;28;20198;-87
2021/12/19 04:35:40;;;;;;;32.40;14.87;;;0.80;94.90;;;;;;5012912;28;20571;-88
2021/12/19 04:38:48;;;;;;;33.33;15.10;;;0.90;94.50;;;;;;5006949;28;20253;-87
2021/12/19 04:41:48;;;;;;;35.33;16.13;;;0.80;94.30;;;;;;5002274;28;20281;-87
2021/12/19 04:55:49;;;;;;;30.97;15.03;;;0.60;95.30;;;;;;5014166;28;20229;-87
2021/12/19 05:01:42;;;;;;;33.20;15.87;;;0.60;94.80;;;;;;5104933;27;20603;-88
2021/12/19 05:04:21;;;;;;;37.73;17.40;;;0.70;95.20;;;;;;5078424;28;20654;-88
2021/12/19 05:14:54;;;;;;;36.27;16.93;;;0.80;95.00;;;;;;5067218;28;20663;-87
2021/12/19 05:17:27;;;;;;;35.37;15.43;;;0.80;94.90;;;;;;5080645;28;20758;-87
2021/12/19 05:20:07;;;;;;;31.23;14.97;;;0.90;94.70;;;;;;5086680;28;20704;-87
2021/12/19 05:22:47;;;;;;;32.50;16.03;;;0.80;94.70;;;;;;5086112;28;20192;-88
2021/12/19 05:25:18;;;;;;;35.27;16.67;;;0.80;94.70;;;;;;5088416;28;20227;-88
2021/12/19 05:27:49;;;;;;;33.63;15.33;;;0.80;94.80;;;;;;5105255;28;20597;-88
2021/12/19 05:30:18;;;;;;;29.57;14.97;;;0.70;94.60;;;;;;5093520;28;20230;-88
2021/12/19 05:32:47;;;;;;;32.33;16.07;;;0.60;94.40;;;;;;5090513;28;20241;-89
2021/12/19 05:35:22;;;;;;;29.17;15.30;;;0.50;94.90;;;;;;5101842;28;20581;-87
2021/12/19 05:46:03;;;;;;;27.63;14.93;;;0.30;96.20;;;;;;5097522;28;20337;-87
2021/12/19 05:48:31;;;;;;;29.90;15.13;;;0.40;95.80;;;;;;5097573;28;20194;-88
2021/12/19 05:51:00;;;;;;;29.53;15.63;;;0.50;95.80;;;;;;5098366;28;20235;-87
2021/12/19 05:53:28;;;;;;;29.23;14.50;;;0.50;95.50;;;;;;5094838;28;20198;-88
2021/12/19 05:55:56;;;;;;;27.87;15.37;;;0.50;95.40;;;;;;5109476;28;20234;-88
2021/12/19 05:58:23;;;;;;;28.27;15.33;;;0.50;95.50;;;;;;5085928;28;20211;-88
2021/12/19 06:00:50;;;;;;;26.70;14.73;;;0.50;95.40;;;;;;5097212;27;20233;-87
2021/12/19 06:03:18;;;;;;;23.80;13.97;;;0.50;95.90;;;;;;5110410;28;20207;-88
2021/12/19 06:05:50;;;;;;;23.07;13.13;;;0.70;95.10;;;;;;5111540;28;20214;-87
2021/12/19 06:08:17;;;;;;;25.57;14.63;;;0.70;94.90;;;;;;5098168;28;20195;-87
2021/12/19 06:10:44;;;;;;;24.17;13.27;;;0.70;94.70;;;;;;5099594;28;20231;-88
2021/12/19 06:13:11;;;;;;;23.97;13.77;;;0.70;94.60;;;;;;5084633;28;20211;-87
2021/12/19 06:15:38;;;;;;;20.00;12.10;;;0.70;94.20;;;;;;5089074;28;20219;-87
2021/12/19 06:18:05;;;;;;;21.83;13.10;;;0.70;94.20;;;;;;5095678;28;20195;-88
2021/12/19 06:20:36;;;;;;;20.30;12.90;;;0.70;94.20;;;;;;5088944;28;20226;-86
2021/12/19 06:23:08;;;;;;;24.00;13.53;;;0.70;94.20;;;;;;5082831;28;20753;-87
2021/12/19 06:25:35;;;;;;;22.27;13.20;;;0.70;94.20;;;;;;5097732;28;20282;-86
2021/12/19 06:28:02;;;;;;;20.43;12.90;;;0.80;94.20;;;;;;5090805;28;20201;-89
2021/12/19 06:30:30;;;;;;;22.27;13.17;;;0.80;94.20;;;;;;5086994;28;20300;-88
2021/12/19 06:32:58;;;;;;;22.13;13.13;;;0.70;94.20;;;;;;5074391;28;20245;-88
2021/12/19 06:35:29;;;;;;;24.47;14.87;;;0.70;94.20;;;;;;5087130;28;20220;-88
2021/12/19 06:37:57;;;;;;;25.20;14.33;;;0.50;94.10;;;;;;5077064;28;20635;-87
2021/12/19 06:40:26;;;;;;;25.83;14.77;;;0.60;95.10;;;;;;5055376;28;20233;-88
2021/12/19 06:42:55;;;;;;;22.27;14.00;;;0.60;94.90;;;;;;5062358;28;20193;-87
2021/12/19 06:45:23;;;;;;;22.00;13.50;;;0.60;95.10;;;;;;5064447;28;20228;-87
2021/12/19 06:47:51;;;;;;;22.63;13.37;;;0.60;94.70;;;;;;5070375;28;20200;-87
2021/12/19 06:50:20;;;;;;;23.53;13.80;;;0.60;94.70;;;;;;5061346;28;20232;-88
2021/12/19 06:52:48;;;;;;;20.47;12.93;;;0.60;94.20;;;;;;5063222;28;20204;-88
2021/12/19 06:55:17;;;;;;;21.70;13.37;;;0.50;94.70;;;;;;5061699;28;20229;-88
2021/12/19 06:57:47;;;;;;;21.77;13.30;;;0.60;94.90;;;;;;5074822;28;20210;-88
2021/12/19 07:00:18;;;;;;;21.07;13.60;;;0.60;94.60;;;;;;5080124;28;20228;-87
2021/12/19 07:02:46;;;;;;;18.37;12.40;;;0.60;94.10;;;;;;5086032;28;20558;-88
2021/12/19 07:05:13;;;;;;;21.03;12.70;;;0.60;94.10;;;;;;5077524;28;20573;-88
2021/12/19 07:07:40;;;;;;;18.33;12.00;;;0.50;94.50;;;;;;5094516;28;20669;-88
2021/12/19 07:10:10;;;;;;;19.53;12.00;;;0.50;94.10;;;;;;5077779;28;20232;-88
2021/12/19 07:12:37;;;;;;;18.70;11.57;;;0.50;94.10;;;;;;5081679;28;20202;-87
2021/12/19 07:15:08;;;;;;;19.50;12.40;;;0.60;94.20;;;;;;5090362;28;20594;-89
2021/12/19 07:17:35;;;;;;;20.70;11.87;;;0.60;94.10;;;;;;5083175;28;20249;-88
2021/12/19 07:20:05;;;;;;;18.87;12.60;;;0.60;94.10;;;;;;5079312;28;20723;-88
2021/12/19 07:22:32;;;;;;;20.03;12.70;;;0.60;94.10;;;;;;5086858;28;20209;-88
2021/12/19 07:24:59;;;;;;;18.57;12.17;;;0.70;94.20;;;;;;5075912;28;20237;-89
2021/12/19 07:27:26;;;;;;;18.57;12.47;;;0.80;94.10;;;;;;5082045;28;20200;-88
2021/12/19 07:29:57;;;;;;;17.27;11.67;;;0.80;93.70;;;;;;5084973;28;20287;-89
2021/12/19 07:32:28;;;;;;;18.37;11.37;;;0.80;93.80;;;;;;5087840;28;20219;-88
2021/12/19 07:34:55;;;;;;;18.60;11.90;;;0.90;93.30;;;;;;5090600;28;20355;-88
2021/12/19 07:37:25;;;;;;;19.10;12.47;;;0.70;93.40;;;;;;5092179;28;20308;-88
2021/12/19 07:40:03;;;;;;;17.67;12.43;;;0.60;93.80;;;;;;5088415;28;20632;-87
2021/12/19 07:42:30;;;;;;;18.17;12.33;;;0.60;94.10;;;;;;5066708;28;20213;-89
2021/12/19 07:44:57;;;;;;;18.87;12.40;;;0.60;94.10;;;;;;5060657;28;20216;-88
2021/12/19 07:47:24;;;;;;;18.93;12.63;;;0.70;94.20;;;;;;5071263;28;20204;-89
2021/12/19 07:49:54;;;;;;;20.07;13.33;;;0.80;93.40;;;;;;5071600;28;20283;-89
2021/12/19 07:52:21;;;;;;;18.07;12.40;;;0.80;93.60;;;;;;5092529;28;20625;-88
2021/12/19 07:54:48;;;;;;;18.93;12.77;;;0.90;93.60;;;;;;5087555;28;20199;-88
2021/12/19 07:57:16;;;;;;;19.17;12.17;;;1.00;93.20;;;;;;5088039;28;20196;-89
2021/12/19 07:59:43;;;;;;;18.20;12.53;;;1.00;92.60;;;;;;5091028;28;20211;-88
2021/12/19 08:02:10;;;;;;;17.97;11.60;;;1.00;92.60;;;;;;5089835;28;20774;-90
2021/12/19 08:04:37;;;;;;;19.07;12.77;;;0.90;92.80;;;;;;5066543;28;20196;-89
2021/12/19 08:07:08;;;;;;;20.43;12.40;;;0.90;92.60;;;;;;5099325;28;20209;-89
2021/12/19 08:09:40;;;;;;;19.43;12.13;;;0.90;92.90;;;;;;5085159;28;20191;-89
2021/12/19 08:12:07;;;;;;;18.27;12.20;;;1.00;93.20;;;;;;5092863;28;20193;-89
2021/12/19 08:14:35;;;;;;;18.53;12.13;;;1.00;93.20;;;;;;5092574;28;20197;-89
2021/12/19 08:17:02;;;;;;;18.83;12.43;;;1.20;92.80;;;;;;5100434;28;20224;-89
2021/12/19 08:19:29;;;;;;;17.80;12.30;;;1.40;92.20;;;;;;5092778;28;20207;-90
2021/12/19 08:21:56;;;;;;;17.03;11.63;;;1.20;92.00;;;;;;5090519;28;20253;-88
2021/12/19 08:24:25;;;;;;;20.33;12.40;;;1.20;91.80;;;;;;5096012;28;20202;-88
2021/12/19 08:26:52;;;;;;;18.10;12.00;;;1.00;92.10;;;;;;5070292;28;20228;-90
2021/12/19 08:29:20;;;;;;;16.57;12.13;;;1.00;92.00;;;;;;5076065;28;20206;-89
2021/12/19 08:31:47;;;;;;;17.40;12.00;;;1.00;92.10;;;;;;5070849;28;20224;-91
2021/12/19 08:34:17;;;;;;;17.13;12.20;;;1.10;91.90;;;;;;5071545;28;20195;-85
2021/12/19 08:36:44;;;;;;;15.40;11.37;;;1.30;92.00;;;;;;5073172;28;20221;-86
2021/12/19 08:39:14;;;;;;;16.50;12.00;;;1.60;91.70;;;;;;5064261;28;20201;-90
2021/12/19 08:41:49;;;;;;;16.27;11.47;;;2.00;88.50;;;;;;5062126;28;20308;-90
2021/12/19 08:44:17;;;;;;;16.23;11.30;;;2.10;87.20;;;;;;5070169;28;20223;-93
2021/12/19 08:47:06;;;;;;;15.10;10.87;;;2.50;87.40;;;;;;5078512;28;20315;-92
2021/12/19 08:49:34;;;;;;;14.67;11.03;;;3.00;83.40;;;;;;5086751;28;20208;-89
2021/12/19 09:04:10;;;;;;;14.05;11.20;;;5.30;59.90;;;;;;5071226;28;20196;-94
2021/12/19 09:10:19;;;;;;;14.33;11.17;;;4.10;68.80;;;;;;5085801;28;20226;-94
2021/12/19 09:13:20;;;;;;;14.83;11.30;;;3.50;72.80;;;;;;5094531;28;20271;-94
2021/12/19 09:15:48;;;;;;;15.00;10.93;;;3.30;75.90;;;;;;5192718;22;20230;-91
2021/12/19 09:18:15;;;;;;;13.97;11.13;;;3.30;77.60;;;;;;5065992;28;20209;-94
2021/12/19 09:20:42;;;;;;;14.97;11.07;;;3.40;77.70;;;;;;5071045;28;20744;-94
2021/12/19 09:23:11;;;;;;;15.07;11.53;;;3.70;76.60;;;;;;5047166;28;20202;-93
2021/12/19 09:25:39;;;;;;;14.20;10.27;;;3.90;76.10;;;;;;5064431;28;20244;-87
2021/12/19 09:28:08;;;;;;;13.27;10.82;;;5.50;77.70;;;;;;5062641;28;20211;-87
2021/12/19 09:44:24;;;;;;;11.45;9.98;;;7.70;39.60;;;;;;4874208;29;20202;-90
2021/12/19 09:56:05;;;;;;;13.07;9.45;;;7.10;46.00;;;;;;5093420;27;20239;-90
2021/12/19 09:58:34;;;;;;;13.02;10.82;;;6.90;45.90;;;;;;5071315;28;20859;-92
2021/12/19 10:08:29;;;;;;;12.65;10.15;;;5.00;57.80;;;;;;5025022;28;20245;-91
2021/12/19 10:17:20;;;;;;;12.07;9.93;;;4.20;68.90;;;;;;5059647;28;20229;-91
2021/12/19 10:20:10;;;;;;;15.90;10.70;;;4.20;68.90;;;;;;5039210;28;20247;-92
2021/12/19 10:22:40;;;;;;;14.87;10.83;;;4.30;67.80;;;;;;5073887;28;20218;-91
2021/12/19 10:25:30;;;;;;;14.83;11.13;;;4.10;71.30;;;;;;5066026;28;20692;-90
2021/12/19 10:28:10;;;;;;;15.73;11.50;;;4.60;67.50;;;;;;5065955;28;20201;-90
2021/12/19 10:30:38;;;;;;;15.53;10.73;;;4.70;68.60;;;;;;5060990;28;20248;-90
2021/12/19 10:33:08;;;;;;;15.17;10.80;;;4.60;65.20;;;;;;5069769;28;20293;-90
2021/12/19 10:35:59;;;;;;;13.05;10.27;;;4.90;68.50;;;;;;5066086;28;20214;-91
2021/12/19 10:38:28;;;;;;;14.65;10.55;;;5.80;59.70;;;;;;5065496;28;20224;-92
2021/12/19 10:40:58;;;;;;;14.00;11.00;;;5.90;54.80;;;;;;5074424;28;20698;-92
2021/12/19 10:43:36;;;;;;;12.80;10.18;;;6.50;55.30;;;;;;5082771;28;20194;-94
2021/12/19 10:48:47;;;;;;;15.73;12.20;;;8.00;44.20;;;;;;5042548;28;20208;-93
2021/12/19 10:51:17;;;;;;;15.98;11.15;;;8.70;39.10;;;;;;5078554;28;20225;-92
2021/12/19 10:53:49;;;;;;;14.55;10.77;;;8.50;38.90;;;;;;5049139;28;20197;-92
2021/12/19 10:56:18;;;;;;;13.90;10.27;;;8.00;39.50;;;;;;5075173;28;20603;-91
2021/12/19 11:19:57;;;;;;;12.05;8.73;;;5.60;59.90;;;;;;5070833;28;20190;-89
2021/12/19 11:22:27;;;;;;;11.57;8.50;;;5.50;59.30;;;;;;5074960;28;20228;-91
2021/12/19 11:24:56;;;;;;;13.80;9.13;;;5.20;61.50;;;;;;5070561;28;20201;-93
2021/12/19 11:31:14;;;;;;;13.23;9.33;;;5.00;65.70;;;;;;5116407;27;21090;-91
2021/12/19 11:34:01;;;;;;;11.33;8.60;;;4.90;69.60;;;;;;5091624;28;20287;-91
2021/12/19 11:36:34;;;;;;;10.73;8.57;;;4.90;69.70;;;;;;5087302;28;20238;-87
2021/12/19 11:42:05;;;;;;;13.20;9.50;;;4.90;69.60;;;;;;5071130;28;20225;-89
2021/12/19 11:44:37;;;;;;;11.47;8.43;;;5.00;69.80;;;;;;5066814;28;20679;-92
2021/12/19 11:47:54;;;;;;;11.67;8.17;;;5.10;66.20;;;;;;5062113;28;20218;-89
2021/12/19 11:50:26;;;;;;;11.07;7.83;;;5.10;69.80;;;;;;5066647;28;20229;-90
2021/12/19 11:52:57;;;;;;;12.17;7.77;;;5.30;67.60;;;;;;5067741;28;20233;-91
2021/12/19 11:55:35;;;;;;;11.33;8.60;;;5.20;68.50;;;;;;5073090;28;20228;-89
2021/12/19 11:58:42;;;;;;;10.77;8.20;;;5.10;72.00;;;;;;5065323;28;20201;-88
2021/12/19 12:01:12;;;;;;;9.63;7.40;;;5.10;72.40;;;;;;5070053;28;20735;-86
2021/12/19 12:03:55;;;;;;;10.87;7.40;;;5.20;70.00;;;;;;5076258;28;20292;-90
2021/12/19 12:06:30;;;;;;;10.57;8.00;;;5.30;72.90;;;;;;5077296;28;20297;-85
2021/12/19 12:09:13;;;;;;;10.93;8.00;;;5.10;72.60;;;;;;5077471;28;20223;-83
2021/12/19 12:11:41;;;;;;;10.00;7.53;;;5.20;73.10;;;;;;5078831;28;20255;-88
2021/12/19 12:14:24;;;;;;;10.00;7.37;;;5.20;75.00;;;;;;5077815;28;20604;-89
2021/12/19 12:19:37;;;;;;;8.97;6.77;;;5.30;71.50;;;;;;5060986;28;20214;-90
2021/12/19 12:22:33;;;;;;;8.03;6.70;;;5.30;72.20;;;;;;5068893;28;20692;-87
2021/12/19 12:25:14;;;;;;;8.03;6.50;;;5.30;75.10;;;;;;5077028;28;20316;-82
2021/12/19 12:27:43;;;;;;;10.10;6.60;;;5.30;75.10;;;;;;5077517;28;20212;-87
2021/12/19 12:30:12;;;;;;;7.10;6.00;;;5.30;73.30;;;;;;5084459;28;20281;-85
2021/12/19 12:32:40;;;;;;;8.63;6.57;;;5.30;74.90;;;;;;5086095;28;20202;-84
2021/12/19 12:35:11;;;;;;;9.97;6.70;;;5.30;74.00;;;;;;5079643;28;20199;-92
2021/12/19 12:37:39;;;;;;;8.73;6.87;;;5.30;74.80;;;;;;5075545;28;20573;-87
2021/12/19 12:40:29;;;;;;;8.10;6.43;;;5.40;74.30;;;;;;5059406;28;20198;-86
2021/12/19 12:43:05;;;;;;;8.87;5.83;;;5.40;75.80;;;;;;5046490;28;20574;-87
2021/12/19 12:45:52;;;;;;;8.07;6.33;;;5.40;75.50;;;;;;5043484;28;20706;-88
2021/12/19 12:48:33;;;;;;;8.27;6.10;;;5.50;75.90;;;;;;5044403;28;20204;-88
2021/12/19 12:53:49;;;;;;;10.03;6.67;;;5.60;75.00;;;;;;5014791;28;20200;-89
2021/12/19 12:56:20;;;;;;;7.87;5.97;;;5.60;75.10;;;;;;5038596;28;20226;-90
2021/12/19 12:58:49;;;;;;;8.40;6.20;;;5.70;73.70;;;;;;5046119;28;20541;-90
2021/12/19 13:01:23;;;;;;;9.27;6.10;;;5.70;75.10;;;;;;5042173;28;21512;-91
2021/12/19 13:04:15;;;;;;;8.80;6.37;;;5.60;75.80;;;;;;5022864;28;20206;-90
2021/12/19 13:06:47;;;;;;;10.67;6.47;;;5.60;76.20;;;;;;5022841;28;20221;-90
2021/12/19 13:09:18;;;;;;;10.10;7.07;;;5.60;76.30;;;;;;5040172;28;20206;-90
2021/12/19 13:11:47;;;;;;;10.07;6.37;;;5.60;77.10;;;;;;5039249;28;20222;-90
2021/12/19 13:14:22;;;;;;;7.03;6.03;;;5.60;76.70;;;;;;5025130;28;20268;-91
2021/12/19 13:16:51;;;;;;;8.93;6.13;;;5.70;76.80;;;;;;5022033;28;20272;-91
2021/12/19 13:19:42;;;;;;;8.33;6.40;;;5.70;77.20;;;;;;5037554;28;20207;-90
2021/12/19 13:22:14;;;;;;;10.23;6.30;;;5.70;79.30;;;;;;5039766;28;20218;-90
2021/12/19 13:24:41;;;;;;;9.57;7.23;;;5.80;77.10;;;;;;5035895;28;20225;-90
2021/12/19 13:27:14;;;;;;;9.80;7.40;;;5.80;77.60;;;;;;5038519;28;20190;-90
2021/12/19 13:29:44;;;;;;;11.90;8.50;;;5.80;76.90;;;;;;5035642;28;20225;-90
2021/12/19 13:32:24;;;;;;;15.50;8.70;;;5.60;77.50;;;;;;5026075;28;20198;-90
2021/12/19 13:34:52;;;;;;;11.77;8.60;;;5.60;79.30;;;;;;5041782;28;20616;-89
2021/12/19 13:37:22;;;;;;;13.43;9.47;;;5.50;79.30;;;;;;5047268;28;20566;-91
2021/12/19 13:40:08;;;;;;;13.27;9.67;;;5.50;78.70;;;;;;5024522;28;20198;-88
2021/12/19 13:42:41;;;;;;;13.07;9.43;;;5.40;80.10;;;;;;5052044;28;20289;-92
2021/12/19 13:45:31;;;;;;;13.77;9.27;;;5.30;80.70;;;;;;5044736;28;20237;-92
2021/12/19 13:48:02;;;;;;;12.73;9.13;;;5.30;81.10;;;;;;5041142;28;20247;-91
2021/12/19 13:53:23;;;;;;;11.13;9.13;;;5.10;82.00;;;;;;5045023;28;20668;-92
2021/12/19 13:56:28;;;;;;;11.87;8.87;;;5.10;83.20;;;;;;5052982;28;20645;-90
2021/12/19 13:59:35;;;;;;;13.33;9.50;;;5.00;82.80;;;;;;5057233;28;20209;-91
2021/12/19 14:02:10;;;;;;;14.17;9.93;;;4.90;84.40;;;;;;5041017;28;20645;-92
2021/12/19 14:04:37;;;;;;;15.37;9.97;;;5.00;84.40;;;;;;5048213;28;20208;-91
2021/12/19 14:07:10;;;;;;;14.23;10.30;;;4.90;84.30;;;;;;5027121;28;20204;-90
2021/12/19 14:09:42;;;;;;;13.60;9.57;;;4.80;84.60;;;;;;5041150;28;20268;-90
2021/12/19 14:12:15;;;;;;;14.20;10.17;;;4.70;86.10;;;;;;5045671;28;20218;-88
2021/12/19 14:14:42;;;;;;;15.53;9.93;;;4.70;86.60;;;;;;5036730;28;20198;-92
2021/12/19 14:17:12;;;;;;;15.07;10.73;;;4.60;86.80;;;;;;5043429;28;20222;-86
2021/12/19 14:19:40;;;;;;;16.10;10.60;;;4.60;87.40;;;;;;5039130;28;21055;-88
2021/12/19 14:22:14;;;;;;;15.97;10.40;;;4.60;88.70;;;;;;5027710;28;20201;-90
2021/12/19 14:25:07;;;;;;;13.67;10.17;;;4.60;87.70;;;;;;5054130;28;20187;-91
2021/12/19 14:27:38;;;;;;;14.53;9.97;;;4.40;88.60;;;;;;5048584;28;20201;-89
2021/12/19 14:30:08;;;;;;;14.23;10.00;;;4.40;88.60;;;;;;5054041;28;20588;-90
2021/12/19 14:32:37;;;;;;;16.27;10.40;;;4.40;88.60;;;;;;5045519;28;20290;-90
2021/12/19 14:35:13;;;;;;;15.40;10.57;;;4.20;88.50;;;;;;5037754;28;20237;-90
2021/12/19 14:37:44;;;;;;;15.30;10.83;;;4.30;89.30;;;;;;5040343;28;20204;-91
2021/12/19 14:40:20;;;;;;;15.67;10.17;;;4.30;88.50;;;;;;5046049;28;20570;-90
2021/12/19 14:42:50;;;;;;;17.87;10.60;;;4.20;89.80;;;;;;5037112;28;20190;-90
2021/12/19 14:45:21;;;;;;;16.20;11.03;;;4.20;90.30;;;;;;5034330;28;20219;-91
2021/12/19 14:47:50;;;;;;;16.00;10.67;;;4.10;90.30;;;;;;5052660;28;20729;-91
2021/12/19 14:50:22;;;;;;;15.47;10.83;;;4.00;90.50;;;;;;5045480;28;20234;-91
2021/12/19 14:53:05;;;;;;;17.07;11.37;;;4.00;90.60;;;;;;5045385;28;20202;-91
2021/12/19 14:55:36;;;;;;;16.93;11.43;;;3.80;90.90;;;;;;5039522;28;20234;-90
2021/12/19 14:58:04;;;;;;;16.97;10.43;;;3.70;91.30;;;;;;5046214;28;20198;-90
2021/12/19 15:00:32;;;;;;;22.10;12.13;;;3.50;92.00;;;;;;5035900;28;20261;-90
2021/12/19 15:02:59;;;;;;;18.33;12.30;;;3.40;92.10;;;;;;5037008;28;20576;-90
2021/12/19 15:05:28;;;;;;;19.83;12.33;;;3.30;92.20;;;;;;5026699;28;20236;-90
2021/12/19 15:07:55;;;;;;;19.87;12.63;;;3.20;92.90;;;;;;5053088;28;20194;-89
2021/12/19 15:10:23;;;;;;;21.07;12.60;;;3.20;93.10;;;;;;5025301;28;20312;-89
2021/12/19 15:12:55;;;;;;;18.83;11.90;;;3.20;93.20;;;;;;5040565;28;20198;-89
2021/12/19 15:15:24;;;;;;;19.43;11.50;;;3.10;93.30;;;;;;5028692;28;20222;-89
2021/12/19 15:17:51;;;;;;;18.50;12.40;;;2.90;93.70;;;;;;5035369;28;20230;-91
2021/12/19 15:20:18;;;;;;;19.33;12.57;;;2.90;94.00;;;;;;5042141;28;20224;-90